sensor_id;sensor_type;location;lat;lon;timestamp;pressure;altitude;pressure_sealevel;temperature;humidity
71805;BME280;59654;52.216;5.616;2023-03-26T00:00:07;100469.13;;;7.22;91.69
71805;BME280;59654;52.216;5.616;2023-03-26T00:00:44;100469.13;;;7.22;91.43
71805;BME280;59654;52.216;5.616;2023-03-26T00:01:23;100467.34;;;7.22;91.81
71805;BME280;59654;52.216;5.616;2023-03-26T00:01:55;100469.13;;;7.22;92.32
71805;BME280;59654;52.216;5.616;2023-03-26T00:02:27;100464.72;;;7.21;91.92
71805;BME280;59654;52.216;5.616;2023-03-26T00:02:59;100474.50;;;7.19;91.41
71805;BME280;59654;52.216;5.616;2023-03-26T00:03:31;100469.22;;;7.17;91.76
71805;BME280;59654;52.216;5.616;2023-03-26T00:04:04;100468.28;;;7.18;91.30
71805;BME280;59654;52.216;5.616;2023-03-26T00:04:36;100471.00;;;7.16;92.32
71805;BME280;59654;52.216;5.616;2023-03-26T00:05:08;100466.56;;;7.17;92.20
71805;BME280;59654;52.216;5.616;2023-03-26T00:05:39;100470.13;;;7.16;91.71
71805;BME280;59654;52.216;5.616;2023-03-26T00:06:13;100468.38;;;7.15;92.38
71805;BME280;59654;52.216;5.616;2023-03-26T00:06:45;100460.44;;;7.15;91.86
71805;BME280;59654;52.216;5.616;2023-03-26T00:07:18;100463.09;;;7.15;92.80
71805;BME280;59654;52.216;5.616;2023-03-26T00:07:49;100468.38;;;7.15;92.42
71805;BME280;59654;52.216;5.616;2023-03-26T00:08:20;100462.16;;;7.16;91.91
71805;BME280;59654;52.216;5.616;2023-03-26T00:08:55;100463.94;;;7.15;91.90
71805;BME280;59654;52.216;5.616;2023-03-26T00:09:27;100456.91;;;7.14;91.78
71805;BME280;59654;52.216;5.616;2023-03-26T00:09:59;100464.91;;;7.13;91.81
71805;BME280;59654;52.216;5.616;2023-03-26T00:10:30;100472.91;;;7.11;92.11
71805;BME280;59654;52.216;5.616;2023-03-26T00:11:02;100465.03;;;7.08;91.60
71805;BME280;59654;52.216;5.616;2023-03-26T00:11:34;100471.25;;;7.07;91.70
71805;BME280;59654;52.216;5.616;2023-03-26T00:12:05;100467.72;;;7.07;91.77
71805;BME280;59654;52.216;5.616;2023-03-26T00:12:36;100473.03;;;7.07;92.36
71805;BME280;59654;52.216;5.616;2023-03-26T00:13:07;100465.94;;;7.07;92.27
71805;BME280;59654;52.216;5.616;2023-03-26T00:13:39;100467.81;;;7.05;92.39
71805;BME280;59654;52.216;5.616;2023-03-26T00:14:13;100464.28;;;7.05;91.82
71805;BME280;59654;52.216;5.616;2023-03-26T00:14:47;100468.69;;;7.06;92.54
71805;BME280;59654;52.216;5.616;2023-03-26T00:15:17;100465.06;;;7.07;92.98
71805;BME280;59654;52.216;5.616;2023-03-26T00:15:48;100466.03;;;7.06;92.52
71805;BME280;59654;52.216;5.616;2023-03-26T00:16:19;100464.28;;;7.05;92.45
71805;BME280;59654;52.216;5.616;2023-03-26T00:16:50;100466.03;;;7.06;92.59
71805;BME280;59654;52.216;5.616;2023-03-26T00:17:23;100474.78;;;7.08;92.52
71805;BME280;59654;52.216;5.616;2023-03-26T00:17:53;100476.56;;;7.07;92.15
71805;BME280;59654;52.216;5.616;2023-03-26T00:18:26;100468.59;;;7.07;92.15
71805;BME280;59654;52.216;5.616;2023-03-26T00:19:01;100472.13;;;7.08;92.22
71805;BME280;59654;52.216;5.616;2023-03-26T00:19:33;100473.00;;;7.08;92.60
71805;BME280;59654;52.216;5.616;2023-03-26T00:20:04;100470.28;;;7.10;92.82
71805;BME280;59654;52.216;5.616;2023-03-26T00:20:37;100476.50;;;7.09;91.98
71805;BME280;59654;52.216;5.616;2023-03-26T00:21:12;100473.84;;;7.09;91.51
71805;BME280;59654;52.216;5.616;2023-03-26T00:21:45;100472.94;;;7.10;91.98
71805;BME280;59654;52.216;5.616;2023-03-26T00:22:17;100471.22;;;7.09;92.17
71805;BME280;59654;52.216;5.616;2023-03-26T00:22:48;100476.50;;;7.09;92.32
71805;BME280;59654;52.216;5.616;2023-03-26T00:23:20;100475.63;;;7.08;91.84
71805;BME280;59654;52.216;5.616;2023-03-26T00:23:51;100480.06;;;7.08;91.94
71805;BME280;59654;52.216;5.616;2023-03-26T00:24:22;100480.06;;;7.08;91.88
71805;BME280;59654;52.216;5.616;2023-03-26T00:24:59;100475.63;;;7.08;92.41
71805;BME280;59654;52.216;5.616;2023-03-26T00:25:30;100478.25;;;7.10;92.53
71805;BME280;59654;52.216;5.616;2023-03-26T00:26:04;100473.81;;;7.10;92.63
71805;BME280;59654;52.216;5.616;2023-03-26T00:26:40;100475.56;;;7.11;92.13
71805;BME280;59654;52.216;5.616;2023-03-26T00:27:11;100472.94;;;7.10;92.02
71805;BME280;59654;52.216;5.616;2023-03-26T00:27:42;100473.81;;;7.10;92.20
71805;BME280;59654;52.216;5.616;2023-03-26T00:28:17;100473.84;;;7.09;91.44
71805;BME280;59654;52.216;5.616;2023-03-26T00:28:51;100468.56;;;7.09;92.24
71805;BME280;59654;52.216;5.616;2023-03-26T00:29:23;100469.47;;;7.08;91.50
71805;BME280;59654;52.216;5.616;2023-03-26T00:29:57;100469.59;;;7.05;91.69
71805;BME280;59654;52.216;5.616;2023-03-26T00:30:29;100472.25;;;7.05;91.50
71805;BME280;59654;52.216;5.616;2023-03-26T00:31:02;100471.38;;;7.04;92.34
71805;BME280;59654;52.216;5.616;2023-03-26T00:31:35;100470.50;;;7.04;92.18
71805;BME280;59654;52.216;5.616;2023-03-26T00:32:09;100470.53;;;7.02;91.71
71805;BME280;59654;52.216;5.616;2023-03-26T00:32:40;100471.44;;;7.01;91.36
71805;BME280;59654;52.216;5.616;2023-03-26T00:33:10;100468.84;;;7.00;91.99
71805;BME280;59654;52.216;5.616;2023-03-26T00:33:42;100475.06;;;6.99;91.35
71805;BME280;59654;52.216;5.616;2023-03-26T00:34:13;100465.38;;;6.98;91.79
71805;BME280;59654;52.216;5.616;2023-03-26T00:34:47;100461.88;;;6.96;91.79
71805;BME280;59654;52.216;5.616;2023-03-26T00:35:21;100472.50;;;6.96;92.04
71805;BME280;59654;52.216;5.616;2023-03-26T00:35:55;100465.44;;;6.95;91.84
71805;BME280;59654;52.216;5.616;2023-03-26T00:36:28;100477.78;;;6.96;92.39
71805;BME280;59654;52.216;5.616;2023-03-26T00:36:59;100468.09;;;6.95;92.15
71805;BME280;59654;52.216;5.616;2023-03-26T00:37:31;100464.59;;;6.94;92.06
71805;BME280;59654;52.216;5.616;2023-03-26T00:38:03;100461.97;;;6.93;91.83
71805;BME280;59654;52.216;5.616;2023-03-26T00:38:34;100462.84;;;6.93;92.23
71805;BME280;59654;52.216;5.616;2023-03-26T00:39:08;100461.97;;;6.93;92.61
71805;BME280;59654;52.216;5.616;2023-03-26T00:39:39;100464.63;;;6.93;92.75
71805;BME280;59654;52.216;5.616;2023-03-26T00:40:12;100462.88;;;6.92;92.10
71805;BME280;59654;52.216;5.616;2023-03-26T00:40:43;100463.75;;;6.92;92.54
71805;BME280;59654;52.216;5.616;2023-03-26T00:41:19;100462.00;;;6.91;92.52
71805;BME280;59654;52.216;5.616;2023-03-26T00:42:00;100458.50;;;6.91;92.12
71805;BME280;59654;52.216;5.616;2023-03-26T00:42:36;100457.66;;;6.90;92.53
71805;BME280;59654;52.216;5.616;2023-03-26T00:43:07;100453.16;;;6.92;92.29
71805;BME280;59654;52.216;5.616;2023-03-26T00:43:54;100448.94;;;6.87;91.77
71805;BME280;59654;52.216;5.616;2023-03-26T00:44:26;100450.72;;;6.86;92.92
71805;BME280;59654;52.216;5.616;2023-03-26T00:44:57;100451.56;;;6.87;92.83
71805;BME280;59654;52.216;5.616;2023-03-26T00:45:28;100448.00;;;6.88;92.42
71805;BME280;59654;52.216;5.616;2023-03-26T00:45:58;100447.13;;;6.87;92.92
71805;BME280;59654;52.216;5.616;2023-03-26T00:46:30;100451.56;;;6.87;92.79
71805;BME280;59654;52.216;5.616;2023-03-26T00:47:01;100446.28;;;6.87;92.66
71805;BME280;59654;52.216;5.616;2023-03-26T00:47:33;100445.44;;;6.85;93.16
71805;BME280;59654;52.216;5.616;2023-03-26T00:48:05;100440.16;;;6.85;92.42
71805;BME280;59654;52.216;5.616;2023-03-26T00:48:37;100451.66;;;6.83;92.69
71805;BME280;59654;52.216;5.616;2023-03-26T00:49:08;100451.63;;;6.85;93.45
71805;BME280;59654;52.216;5.616;2023-03-26T00:49:40;100447.19;;;6.86;93.38
71805;BME280;59654;52.216;5.616;2023-03-26T00:50:10;100449.84;;;6.86;93.56
71805;BME280;59654;52.216;5.616;2023-03-26T00:50:47;100447.22;;;6.84;92.24
71805;BME280;59654;52.216;5.616;2023-03-26T00:51:20;100449.00;;;6.83;92.66
71805;BME280;59654;52.216;5.616;2023-03-26T00:51:51;100448.09;;;6.85;93.17
71805;BME280;59654;52.216;5.616;2023-03-26T00:52:23;100449.00;;;6.83;92.81
71805;BME280;59654;52.216;5.616;2023-03-26T00:52:54;100438.41;;;6.83;92.71
71805;BME280;59654;52.216;5.616;2023-03-26T00:53:25;100444.56;;;6.84;92.71
71805;BME280;59654;52.216;5.616;2023-03-26T00:53:56;100443.72;;;6.83;93.07
71805;BME280;59654;52.216;5.616;2023-03-26T00:54:28;100439.31;;;6.82;92.88
71805;BME280;59654;52.216;5.616;2023-03-26T00:54:59;100452.56;;;6.82;93.22
71805;BME280;59654;52.216;5.616;2023-03-26T00:55:30;100452.53;;;6.84;93.61
71805;BME280;59654;52.216;5.616;2023-03-26T00:56:00;100447.28;;;6.82;93.55
71805;BME280;59654;52.216;5.616;2023-03-26T00:56:31;100447.22;;;6.84;93.05
71805;BME280;59654;52.216;5.616;2023-03-26T00:57:02;100451.66;;;6.83;93.04
71805;BME280;59654;52.216;5.616;2023-03-26T00:57:36;100450.78;;;6.83;93.09
71805;BME280;59654;52.216;5.616;2023-03-26T00:58:07;100444.66;;;6.81;92.88
71805;BME280;59654;52.216;5.616;2023-03-26T00:58:42;100448.19;;;6.81;93.37
71805;BME280;59654;52.216;5.616;2023-03-26T00:59:13;100448.13;;;6.83;93.46
71805;BME280;59654;52.216;5.616;2023-03-26T00:59:43;100436.66;;;6.82;92.80
71805;BME280;59654;52.216;5.616;2023-03-26T01:00:17;100442.91;;;6.80;93.32
71805;BME280;59654;52.216;5.616;2023-03-26T01:00:52;100448.22;;;6.80;93.54
71805;BME280;59654;52.216;5.616;2023-03-26T01:01:28;100443.78;;;6.80;93.23
71805;BME280;59654;52.216;5.616;2023-03-26T01:02:00;100441.16;;;6.80;93.71
71805;BME280;59654;52.216;5.616;2023-03-26T01:02:31;100435.84;;;6.80;93.06
71805;BME280;59654;52.216;5.616;2023-03-26T01:03:03;100431.41;;;6.81;92.87
71805;BME280;59654;52.216;5.616;2023-03-26T01:03:37;100430.53;;;6.80;92.97
71805;BME280;59654;52.216;5.616;2023-03-26T01:04:29;100431.38;;;6.82;92.98
71805;BME280;59654;52.216;5.616;2023-03-26T01:06:06;100437.59;;;6.81;93.47
71805;BME280;59654;52.216;5.616;2023-03-26T01:06:38;100434.06;;;6.81;93.39
71805;BME280;59654;52.216;5.616;2023-03-26T01:07:16;100434.06;;;6.81;92.71
71805;BME280;59654;52.216;5.616;2023-03-26T01:07:51;100436.75;;;6.79;92.69
71805;BME280;59654;52.216;5.616;2023-03-26T01:08:44;100437.66;;;6.78;92.58
71805;BME280;59654;52.216;5.616;2023-03-26T01:09:18;100430.63;;;6.77;93.24
71805;BME280;59654;52.216;5.616;2023-03-26T01:09:51;100432.38;;;6.78;93.29
71805;BME280;59654;52.216;5.616;2023-03-26T01:10:22;100437.66;;;6.78;93.49
71805;BME280;59654;52.216;5.616;2023-03-26T01:10:55;100432.41;;;6.77;93.06
71805;BME280;59654;52.216;5.616;2023-03-26T01:11:36;100430.66;;;6.76;92.18
71805;BME280;59654;52.216;5.616;2023-03-26T01:12:12;100432.56;;;6.72;92.92
71805;BME280;59654;52.216;5.616;2023-03-26T01:12:46;100429.97;;;6.71;93.02
71805;BME280;59654;52.216;5.616;2023-03-26T01:13:23;100426.44;;;6.70;92.91
71805;BME280;59654;52.216;5.616;2023-03-26T01:14:01;100428.22;;;6.70;92.65
71805;BME280;59654;52.216;5.616;2023-03-26T01:14:42;100440.56;;;6.71;92.81
71805;BME280;59654;52.216;5.616;2023-03-26T01:15:13;100437.00;;;6.72;93.29
71805;BME280;59654;52.216;5.616;2023-03-26T01:15:45;100432.59;;;6.71;92.67
71805;BME280;59654;52.216;5.616;2023-03-26T01:16:25;100427.25;;;6.72;92.76
71805;BME280;59654;52.216;5.616;2023-03-26T01:17:02;100432.56;;;6.72;93.09
71805;BME280;59654;52.216;5.616;2023-03-26T01:17:35;100431.66;;;6.73;93.04
71805;BME280;59654;52.216;5.616;2023-03-26T01:18:07;100432.56;;;6.72;93.03
71805;BME280;59654;52.216;5.616;2023-03-26T01:18:39;100432.59;;;6.71;93.02
71805;BME280;59654;52.216;5.616;2023-03-26T01:19:22;100429.91;;;6.72;92.40
71805;BME280;59654;52.216;5.616;2023-03-26T01:20:20;100424.75;;;6.68;93.05
71805;BME280;59654;52.216;5.616;2023-03-26T01:20:56;100418.63;;;6.66;92.74
71805;BME280;59654;52.216;5.616;2023-03-26T01:21:28;100421.31;;;6.64;92.44
71805;BME280;59654;52.216;5.616;2023-03-26T01:21:59;100415.19;;;6.62;93.23
71805;BME280;59654;52.216;5.616;2023-03-26T01:22:35;100426.69;;;6.61;92.77
71805;BME280;59654;52.216;5.616;2023-03-26T01:23:07;100415.22;;;6.61;93.42
71805;BME280;59654;52.216;5.616;2023-03-26T01:23:46;100421.38;;;6.61;93.96
71805;BME280;59654;52.216;5.616;2023-03-26T01:24:21;100418.75;;;6.61;93.56
71805;BME280;59654;52.216;5.616;2023-03-26T01:24:53;100417.88;;;6.61;93.24
71805;BME280;59654;52.216;5.616;2023-03-26T01:25:33;100411.66;;;6.62;93.30
71805;BME280;59654;52.216;5.616;2023-03-26T01:26:33;100416.09;;;6.61;93.18
71805;BME280;59654;52.216;5.616;2023-03-26T01:27:30;100413.47;;;6.60;93.60
71805;BME280;59654;52.216;5.616;2023-03-26T01:28:05;100414.31;;;6.62;93.35
71805;BME280;59654;52.216;5.616;2023-03-26T01:28:42;100409.00;;;6.62;93.92
71805;BME280;59654;52.216;5.616;2023-03-26T01:29:27;100413.44;;;6.61;93.63
71805;BME280;59654;52.216;5.616;2023-03-26T01:30:28;100411.69;;;6.60;93.50
71805;BME280;59654;52.216;5.616;2023-03-26T01:31:20;100404.75;;;6.58;93.26
71805;BME280;59654;52.216;5.616;2023-03-26T01:33:44;100405.69;;;6.55;93.45
71805;BME280;59654;52.216;5.616;2023-03-26T01:34:42;100403.03;;;6.55;92.86
71805;BME280;59654;52.216;5.616;2023-03-26T01:36:07;100402.22;;;6.53;93.46
71805;BME280;59654;52.216;5.616;2023-03-26T01:37:32;100401.31;;;6.54;93.49
71805;BME280;59654;52.216;5.616;2023-03-26T01:38:59;100398.81;;;6.48;93.28
71805;BME280;59654;52.216;5.616;2023-03-26T01:40:05;100391.81;;;6.45;92.79
71805;BME280;59654;52.216;5.616;2023-03-26T01:40:46;100401.50;;;6.46;93.35
71805;BME280;59654;52.216;5.616;2023-03-26T01:42:23;100383.84;;;6.47;92.66
71805;BME280;59654;52.216;5.616;2023-03-26T01:44:09;100384.78;;;6.44;92.32
71805;BME280;59654;52.216;5.616;2023-03-26T01:44:54;100382.19;;;6.43;92.49
71805;BME280;59654;52.216;5.616;2023-03-26T01:45:33;100377.75;;;6.43;92.64
71805;BME280;59654;52.216;5.616;2023-03-26T01:46:08;100377.75;;;6.43;92.19
71805;BME280;59654;52.216;5.616;2023-03-26T01:46:41;100377.81;;;6.42;92.64
71805;BME280;59654;52.216;5.616;2023-03-26T01:47:16;100377.88;;;6.40;92.86
71805;BME280;59654;52.216;5.616;2023-03-26T01:47:47;100377.91;;;6.39;92.11
71805;BME280;59654;52.216;5.616;2023-03-26T01:48:19;100380.59;;;6.37;92.76
71805;BME280;59654;52.216;5.616;2023-03-26T01:48:50;100377.13;;;6.35;92.64
71805;BME280;59654;52.216;5.616;2023-03-26T01:49:21;100378.88;;;6.36;92.85
71805;BME280;59654;52.216;5.616;2023-03-26T01:49:52;100380.66;;;6.36;92.90
71805;BME280;59654;52.216;5.616;2023-03-26T01:50:23;100376.25;;;6.35;92.42
71805;BME280;59654;52.216;5.616;2023-03-26T01:50:53;100372.78;;;6.33;92.80
71805;BME280;59654;52.216;5.616;2023-03-26T01:51:34;100377.16;;;6.34;93.32
71805;BME280;59654;52.216;5.616;2023-03-26T01:52:13;100380.72;;;6.33;93.06
71805;BME280;59654;52.216;5.616;2023-03-26T01:52:46;100371.03;;;6.32;93.32
71805;BME280;59654;52.216;5.616;2023-03-26T01:53:18;100371.91;;;6.32;92.97
71805;BME280;59654;52.216;5.616;2023-03-26T01:53:49;100371.03;;;6.32;92.99
71805;BME280;59654;52.216;5.616;2023-03-26T01:54:24;100378.13;;;6.31;93.25
71805;BME280;59654;52.216;5.616;2023-03-26T01:54:57;100368.41;;;6.32;93.02
71805;BME280;59654;52.216;5.616;2023-03-26T01:55:47;100371.09;;;6.30;93.19
71805;BME280;59654;52.216;5.616;2023-03-26T01:58:26;100368.47;;;6.29;93.83
71805;BME280;59654;52.216;5.616;2023-03-26T02:00:57;100366.78;;;6.26;93.43
71805;BME280;59654;52.216;5.616;2023-03-26T02:01:54;100358.84;;;6.26;94.31
71805;BME280;59654;52.216;5.616;2023-03-26T02:02:40;100363.22;;;6.27;94.22
71805;BME280;59654;52.216;5.616;2023-03-26T02:03:35;100357.06;;;6.27;93.97
71805;BME280;59654;52.216;5.616;2023-03-26T02:04:48;100357.00;;;6.28;93.94
71805;BME280;59654;52.216;5.616;2023-03-26T02:08:45;100352.59;;;6.29;94.35
71805;BME280;59654;52.216;5.616;2023-03-26T02:09:30;100348.16;;;6.29;93.66
71805;BME280;59654;52.216;5.616;2023-03-26T02:10:50;100347.28;;;6.29;93.93
71805;BME280;59654;52.216;5.616;2023-03-26T02:11:25;100342.91;;;6.28;93.94
71805;BME280;59654;52.216;5.616;2023-03-26T02:11:59;100344.72;;;6.26;93.94
71805;BME280;59654;52.216;5.616;2023-03-26T02:12:34;100341.19;;;6.27;94.08
71805;BME280;59654;52.216;5.616;2023-03-26T02:13:05;100341.13;;;6.28;93.95
71805;BME280;59654;52.216;5.616;2023-03-26T02:13:41;100344.66;;;6.29;94.32
71805;BME280;59654;52.216;5.616;2023-03-26T02:14:14;100343.75;;;6.30;94.45
71805;BME280;59654;52.216;5.616;2023-03-26T02:14:46;100346.31;;;6.33;94.03
71805;BME280;59654;52.216;5.616;2023-03-26T02:15:17;100341.88;;;6.33;93.22
71805;BME280;59654;52.216;5.616;2023-03-26T02:15:59;100336.53;;;6.35;93.96
71805;BME280;59654;52.216;5.616;2023-03-26T02:16:31;100343.56;;;6.36;92.86
71805;BME280;59654;52.216;5.616;2023-03-26T02:17:02;100340.03;;;6.37;93.12
71805;BME280;59654;52.216;5.616;2023-03-26T02:17:34;100336.50;;;6.36;93.25
71805;BME280;59654;52.216;5.616;2023-03-26T02:18:05;100343.56;;;6.36;93.53
71805;BME280;59654;52.216;5.616;2023-03-26T02:18:40;100341.78;;;6.36;93.41
71805;BME280;59654;52.216;5.616;2023-03-26T02:19:13;100338.28;;;6.36;93.31
71805;BME280;59654;52.216;5.616;2023-03-26T02:19:51;100340.88;;;6.37;93.14
71805;BME280;59654;52.216;5.616;2023-03-26T02:20:21;100329.47;;;6.35;93.66
71805;BME280;59654;52.216;5.616;2023-03-26T02:20:52;100336.53;;;6.35;92.92
71805;BME280;59654;52.216;5.616;2023-03-26T02:21:25;100331.25;;;6.35;93.56
71805;BME280;59654;52.216;5.616;2023-03-26T02:21:56;100340.97;;;6.34;92.92
71805;BME280;59654;52.216;5.616;2023-03-26T02:22:30;100336.53;;;6.35;93.43
71805;BME280;59654;52.216;5.616;2023-03-26T02:23:03;100333.03;;;6.34;93.84
71805;BME280;59654;52.216;5.616;2023-03-26T02:23:34;100340.09;;;6.34;93.55
71805;BME280;59654;52.216;5.616;2023-03-26T02:24:06;100331.25;;;6.35;94.00
71805;BME280;59654;52.216;5.616;2023-03-26T02:24:43;100326.81;;;6.35;93.81
71805;BME280;59654;52.216;5.616;2023-03-26T02:25:18;100319.78;;;6.34;94.43
71805;BME280;59654;52.216;5.616;2023-03-26T02:25:51;100326.00;;;6.33;93.85
71805;BME280;59654;52.216;5.616;2023-03-26T02:26:23;100329.50;;;6.34;94.38
71805;BME280;59654;52.216;5.616;2023-03-26T02:27:10;100328.69;;;6.32;93.85
71805;BME280;59654;52.216;5.616;2023-03-26T02:27:43;100326.13;;;6.29;94.15
71805;BME280;59654;52.216;5.616;2023-03-26T02:28:15;100334.06;;;6.29;94.15
71805;BME280;59654;52.216;5.616;2023-03-26T02:28:47;100330.53;;;6.28;94.67
71805;BME280;59654;52.216;5.616;2023-03-26T02:29:19;100331.41;;;6.29;94.51
71805;BME280;59654;52.216;5.616;2023-03-26T02:29:51;100329.63;;;6.29;94.42
71805;BME280;59654;52.216;5.616;2023-03-26T02:30:25;100327.84;;;6.30;94.68
71805;BME280;59654;52.216;5.616;2023-03-26T02:30:59;100328.72;;;6.30;94.37
71805;BME280;59654;52.216;5.616;2023-03-26T02:31:33;100324.31;;;6.31;94.66
71805;BME280;59654;52.216;5.616;2023-03-26T02:32:07;100334.03;;;6.30;94.28
71805;BME280;59654;52.216;5.616;2023-03-26T02:32:42;100326.97;;;6.29;94.34
71805;BME280;59654;52.216;5.616;2023-03-26T02:33:14;100315.50;;;6.30;94.40
71805;BME280;59654;52.216;5.616;2023-03-26T02:33:46;100324.31;;;6.31;94.81
71805;BME280;59654;52.216;5.616;2023-03-26T02:34:19;100322.47;;;6.33;95.41
71805;BME280;59654;52.216;5.616;2023-03-26T02:34:54;100317.19;;;6.33;95.30
71805;BME280;59654;52.216;5.616;2023-03-26T02:35:25;100315.38;;;6.35;94.99
71805;BME280;59654;52.216;5.616;2023-03-26T02:36:02;100319.75;;;6.36;94.77
71805;BME280;59654;52.216;5.616;2023-03-26T02:36:33;100314.50;;;6.34;95.29
71805;BME280;59654;52.216;5.616;2023-03-26T02:37:08;100312.72;;;6.35;94.74
71805;BME280;59654;52.216;5.616;2023-03-26T02:37:40;100314.50;;;6.34;94.40
71805;BME280;59654;52.216;5.616;2023-03-26T02:38:19;100316.28;;;6.34;94.95
71805;BME280;59654;52.216;5.616;2023-03-26T02:38:50;100313.59;;;6.35;95.22
71805;BME280;59654;52.216;5.616;2023-03-26T02:39:21;100314.41;;;6.37;95.53
71805;BME280;59654;52.216;5.616;2023-03-26T02:40:00;100305.56;;;6.38;95.34
71805;BME280;59654;52.216;5.616;2023-03-26T02:40:35;100309.91;;;6.41;95.79
71805;BME280;59654;52.216;5.616;2023-03-26T02:41:06;100312.47;;;6.42;95.37
71805;BME280;59654;52.216;5.616;2023-03-26T02:41:55;100314.22;;;6.43;95.27
71805;BME280;59654;52.216;5.616;2023-03-26T02:42:27;100306.25;;;6.43;94.88
71805;BME280;59654;52.216;5.616;2023-03-26T02:42:57;100312.38;;;6.45;95.34
71805;BME280;59654;52.216;5.616;2023-03-26T02:43:29;100313.25;;;6.46;94.80
71805;BME280;59654;52.216;5.616;2023-03-26T02:44:00;100309.75;;;6.45;94.99
71805;BME280;59654;52.216;5.616;2023-03-26T02:44:49;100305.25;;;6.47;95.19
71805;BME280;59654;52.216;5.616;2023-03-26T02:45:23;100306.13;;;6.48;95.03
71805;BME280;59654;52.216;5.616;2023-03-26T02:46:13;100306.09;;;6.50;95.34
71805;BME280;59654;52.216;5.616;2023-03-26T02:46:58;100299.00;;;6.50;95.04
71805;BME280;59654;52.216;5.616;2023-03-26T02:47:48;100300.75;;;6.51;94.98
71805;BME280;59654;52.216;5.616;2023-03-26T02:48:39;100300.72;;;6.53;95.10
71805;BME280;59654;52.216;5.616;2023-03-26T02:49:25;100295.41;;;6.53;94.79
71805;BME280;59654;52.216;5.616;2023-03-26T02:49:56;100299.78;;;6.54;94.92
71805;BME280;59654;52.216;5.616;2023-03-26T02:50:53;100293.63;;;6.53;95.02
71805;BME280;59654;52.216;5.616;2023-03-26T02:51:40;100298.00;;;6.54;94.65
71805;BME280;59654;52.216;5.616;2023-03-26T02:52:23;100300.63;;;6.56;94.74
71805;BME280;59654;52.216;5.616;2023-03-26T02:52:55;100306.75;;;6.58;94.33
71805;BME280;59654;52.216;5.616;2023-03-26T02:53:26;100296.16;;;6.58;94.55
71805;BME280;59654;52.216;5.616;2023-03-26T02:54:19;100293.53;;;6.56;94.52
71805;BME280;59654;52.216;5.616;2023-03-26T02:55:02;100292.69;;;6.56;95.08
71805;BME280;59654;52.216;5.616;2023-03-26T02:55:33;100287.34;;;6.57;95.27
71805;BME280;59654;52.216;5.616;2023-03-26T02:56:06;100295.28;;;6.57;94.68
71805;BME280;59654;52.216;5.616;2023-03-26T02:56:45;100299.63;;;6.58;94.61
71805;BME280;59654;52.216;5.616;2023-03-26T02:57:36;100299.59;;;6.60;94.71
71805;BME280;59654;52.216;5.616;2023-03-26T02:58:22;100301.31;;;6.61;94.46
71805;BME280;59654;52.216;5.616;2023-03-26T02:58:55;100302.19;;;6.61;94.74
71805;BME280;59654;52.216;5.616;2023-03-26T02:59:26;100301.31;;;6.61;94.79
71805;BME280;59654;52.216;5.616;2023-03-26T03:00:19;100300.47;;;6.60;94.81
71805;BME280;59654;52.216;5.616;2023-03-26T03:00:58;100298.69;;;6.61;94.68
71805;BME280;59654;52.216;5.616;2023-03-26T03:01:38;100289.97;;;6.57;94.66
71805;BME280;59654;52.216;5.616;2023-03-26T03:02:12;100294.41;;;6.57;94.45
71805;BME280;59654;52.216;5.616;2023-03-26T03:02:44;100292.72;;;6.54;94.91
71805;BME280;59654;52.216;5.616;2023-03-26T03:03:24;100292.72;;;6.54;94.82
71805;BME280;59654;52.216;5.616;2023-03-26T03:04:11;100295.38;;;6.54;94.89
71805;BME280;59654;52.216;5.616;2023-03-26T03:04:42;100290.03;;;6.56;94.50
71805;BME280;59654;52.216;5.616;2023-03-26T03:05:14;100291.81;;;6.55;95.09
71805;BME280;59654;52.216;5.616;2023-03-26T03:05:45;100297.09;;;6.55;95.29
71805;BME280;59654;52.216;5.616;2023-03-26T03:06:39;100290.91;;;6.56;94.94
71805;BME280;59654;52.216;5.616;2023-03-26T03:07:10;100292.63;;;6.57;95.51
71805;BME280;59654;52.216;5.616;2023-03-26T03:07:45;100289.03;;;6.58;95.23
71805;BME280;59654;52.216;5.616;2023-03-26T03:08:17;100288.13;;;6.59;94.84
71805;BME280;59654;52.216;5.616;2023-03-26T03:09:15;100288.94;;;6.61;95.65
71805;BME280;59654;52.216;5.616;2023-03-26T03:09:48;100294.19;;;6.63;95.68
71805;BME280;59654;52.216;5.616;2023-03-26T03:11:18;100300.31;;;6.65;95.17
71805;BME280;59654;52.216;5.616;2023-03-26T03:11:54;100294.16;;;6.64;95.50
71805;BME280;59654;52.216;5.616;2023-03-26T03:12:25;100284.47;;;6.63;95.29
71805;BME280;59654;52.216;5.616;2023-03-26T03:12:56;100288.84;;;6.64;94.74
71805;BME280;59654;52.216;5.616;2023-03-26T03:13:28;100287.09;;;6.65;95.06
71805;BME280;59654;52.216;5.616;2023-03-26T03:13:59;100291.47;;;6.66;95.29
71805;BME280;59654;52.216;5.616;2023-03-26T03:14:32;100289.69;;;6.66;95.47
71805;BME280;59654;52.216;5.616;2023-03-26T03:15:03;100295.81;;;6.68;95.26
71805;BME280;59654;52.216;5.616;2023-03-26T03:15:34;100290.47;;;6.70;95.05
71805;BME280;59654;52.216;5.616;2023-03-26T03:16:05;100287.81;;;6.70;94.94
71805;BME280;59654;52.216;5.616;2023-03-26T03:16:38;100289.56;;;6.71;95.09
71805;BME280;59654;52.216;5.616;2023-03-26T03:17:12;100292.16;;;6.72;95.46
71805;BME280;59654;52.216;5.616;2023-03-26T03:17:43;100286.00;;;6.72;95.00
71805;BME280;59654;52.216;5.616;2023-03-26T03:18:13;100288.69;;;6.70;94.81
71805;BME280;59654;52.216;5.616;2023-03-26T03:18:44;100284.22;;;6.72;95.15
71805;BME280;59654;52.216;5.616;2023-03-26T03:19:17;100286.84;;;6.72;94.70
71805;BME280;59654;52.216;5.616;2023-03-26T03:19:47;100289.56;;;6.71;95.14
71805;BME280;59654;52.216;5.616;2023-03-26T03:20:19;100288.69;;;6.70;94.96
71805;BME280;59654;52.216;5.616;2023-03-26T03:20:51;100284.25;;;6.71;95.04
71805;BME280;59654;52.216;5.616;2023-03-26T03:21:25;100286.84;;;6.72;95.33
71805;BME280;59654;52.216;5.616;2023-03-26T03:21:57;100286.81;;;6.74;94.73
71805;BME280;59654;52.216;5.616;2023-03-26T03:22:28;100281.50;;;6.74;94.88
71805;BME280;59654;52.216;5.616;2023-03-26T03:22:58;100290.28;;;6.74;94.96
71805;BME280;59654;52.216;5.616;2023-03-26T03:23:29;100288.47;;;6.76;95.25